Time;durP1;ratioP1;P1;durP2;ratioP2;P2;SDS_P1;SDS_P2;PMS_P1;PMS_P2;Temp;Humidity;BMP_temperature;BMP_pressure;BME280_temperature;BME280_humidity;BME280_pressure;Samples;Min_cycle;Max_cycle;Signal;HPM_P1;HPM_P2
2023/01/22 00:07:56;;;;;;;33;20.8;;;;;;;0.8;89.8;99350;;;;
2023/01/22 00:17:56;;;;;;;33;20.8;;;;;;;0.9;89.9;99360;;;;
2023/01/22 00:27:56;;;;;;;31.6;19.4;;;;;;;0.8;89.9;99360;;;;
2023/01/22 00:37:57;;;;;;;31.6;19.4;;;;;;;0.8;89.9;99370;;;;
2023/01/22 00:48:56;;;;;;;31.6;19.4;;;;;;;0.8;89.9;99370;;;;
2023/01/22 00:58:56;;;;;;;34.5;20.6;;;;;;;0.7;90;99350;;;;
2023/01/22 01:08:56;;;;;;;34.5;20.6;;;;;;;0.7;90;99370;;;;
2023/01/22 01:19:56;;;;;;;34.5;20.6;;;;;;;0.7;89.9;99360;;;;
2023/01/22 01:30:56;;;;;;;29.5;19.4;;;;;;;0.7;89.7;99380;;;;
2023/01/22 01:40:56;;;;;;;29.5;19.4;;;;;;;0.6;89.6;99400;;;;
2023/01/22 01:51:56;;;;;;;29.5;19.4;;;;;;;0.5;89.1;99410;;;;
2023/01/22 02:01:56;;;;;;;26.4;17.3;;;;;;;0.5;89;99410;;;;
2023/01/22 02:12:56;;;;;;;26.4;17.3;;;;;;;0.5;88.9;99410;;;;
2023/01/22 02:22:56;;;;;;;26.4;17.3;;;;;;;0.4;88.8;99410;;;;
2023/01/22 02:32:56;;;;;;;27;16;;;;;;;0.5;88.7;99400;;;;
2023/01/22 02:43:56;;;;;;;27;16;;;;;;;0.4;88.7;99400;;;;
2023/01/22 02:54:56;;;;;;;27;16;;;;;;;0.3;88.8;99400;;;;
2023/01/22 03:05:02;;;;;;;18.6;13;;;;;;;0.3;89;99410;;;;
2023/01/22 03:25:56;;;;;;;20.5;12.7;;;;;;;0.3;89;99430;;;;
2023/01/22 03:36:56;;;;;;;20.5;12.7;;;;;;;0.4;88.9;99420;;;;
2023/01/22 03:46:56;;;;;;;20.5;12.7;;;;;;;0.4;88.8;99420;;;;
2023/01/22 03:57:56;;;;;;;17;10.7;;;;;;;0.4;88.7;99420;;;;
2023/01/22 04:07:56;;;;;;;17;10.7;;;;;;;0.4;88.7;99420;;;;
2023/01/22 04:18:56;;;;;;;17;10.7;;;;;;;0.3;88.9;99430;;;;
2023/01/22 04:28:56;;;;;;;18.7;10.4;;;;;;;0.3;89;99420;;;;
2023/01/22 04:39:56;;;;;;;18.7;10.4;;;;;;;0.3;88.9;99430;;;;
2023/01/22 04:50:56;;;;;;;18.7;10.4;;;;;;;0.3;89.1;99430;;;;
2023/01/22 05:00:56;;;;;;;18.7;9.7;;;;;;;0.3;89.2;99420;;;;
2023/01/22 05:11:56;;;;;;;18.7;9.7;;;;;;;0.3;89.3;99430;;;;
2023/01/22 05:21:56;;;;;;;18.7;9.7;;;;;;;0.2;89.6;99430;;;;
2023/01/22 05:31:56;;;;;;;16;9.1;;;;;;;0.2;89.7;99460;;;;
2023/01/22 05:42:56;;;;;;;16;9.1;;;;;;;0.2;89.8;99480;;;;
2023/01/22 05:52:56;;;;;;;16;9.1;;;;;;;0.1;89.9;99490;;;;
2023/01/22 06:03:56;;;;;;;16.6;9.2;;;;;;;0.1;90.2;99480;;;;
2023/01/22 06:14:56;;;;;;;16.6;9.2;;;;;;;0.1;90.2;99480;;;;
2023/01/22 06:24:56;;;;;;;15.9;8.8;;;;;;;0.2;90.4;99480;;;;
2023/01/22 06:34:56;;;;;;;15.9;8.8;;;;;;;0.3;90.4;99490;;;;
2023/01/22 06:45:56;;;;;;;15.9;8.8;;;;;;;0.2;90.6;99500;;;;
2023/01/22 06:55:56;;;;;;;15.1;7.9;;;;;;;0.2;90.7;99490;;;;
2023/01/22 07:05:57;;;;;;;15.1;7.9;;;;;;;0.3;90.8;99510;;;;
2023/01/22 07:16:56;;;;;;;15.1;7.9;;;;;;;0.4;90.5;99540;;;;
2023/01/22 07:26:56;;;;;;;12.9;6.7;;;;;;;0.4;90.6;99530;;;;
2023/01/22 07:37:56;;;;;;;12.9;6.7;;;;;;;0.5;90.5;99540;;;;
2023/01/22 07:48:56;;;;;;;12.9;6.7;;;;;;;0.7;90.4;99540;;;;
2023/01/22 07:59:56;;;;;;;15.4;8.6;;;;;;;0.5;90.1;99550;;;;
2023/01/22 08:10:56;;;;;;;15.4;8.6;;;;;;;0.7;90.1;99560;;;;
2023/01/22 08:20:56;;;;;;;15.4;8.6;;;;;;;0.5;90.3;99560;;;;
2023/01/22 08:30:58;;;;;;;12.5;7.3;;;;;;;0.6;90.6;99560;;;;
2023/01/22 08:40:56;;;;;;;12.5;7.3;;;;;;;0.6;90.5;99570;;;;
2023/01/22 08:51:56;;;;;;;12.5;7.3;;;;;;;0.6;91;99570;;;;
2023/01/22 09:01:56;;;;;;;13.5;7.3;;;;;;;0.8;90.5;99580;;;;
2023/01/22 09:11:56;;;;;;;13.5;7.3;;;;;;;1;90.2;99580;;;;
2023/01/22 09:22:56;;;;;;;13.5;7.3;;;;;;;0.9;89.8;99590;;;;
2023/01/22 09:33:56;;;;;;;13.1;7.2;;;;;;;1;89.9;99590;;;;
2023/01/22 09:43:56;;;;;;;13.1;7.2;;;;;;;1.2;89.6;99560;;;;
2023/01/22 09:53:56;;;;;;;13.1;7.2;;;;;;;1.2;89.5;99550;;;;
2023/01/22 10:03:57;;;;;;;12.9;7.5;;;;;;;1.4;89.3;99570;;;;
2023/01/22 10:13:56;;;;;;;12.9;7.5;;;;;;;1.3;89.1;99580;;;;
2023/01/22 10:24:57;;;;;;;14.9;8.8;;;;;;;1.6;89.1;99590;;;;
2023/01/22 10:35:57;;;;;;;14.9;8.8;;;;;;;1.4;89;99580;;;;
2023/01/22 10:46:56;;;;;;;14.9;8.8;;;;;;;1.2;89.9;99590;;;;
2023/01/22 10:57:56;;;;;;;13.7;8.6;;;;;;;1.7;89.8;99590;;;;
2023/01/22 11:07:56;;;;;;;13.7;8.6;;;;;;;1.6;89.2;99590;;;;
2023/01/22 11:17:57;;;;;;;13.7;8.6;;;;;;;1.7;89.5;99580;;;;
2023/01/22 11:28:57;;;;;;;16.4;9.4;;;;;;;1.8;89.4;99570;;;;
2023/01/22 11:39:56;;;;;;;16.4;9.4;;;;;;;1.7;89.5;99580;;;;
2023/01/22 11:50:56;;;;;;;16.4;9.4;;;;;;;1.8;89.8;99590;;;;
2023/01/22 12:00:56;;;;;;;16.1;10;;;;;;;1.8;89.3;99590;;;;
2023/01/22 12:11:56;;;;;;;16.1;10;;;;;;;2;89.1;99600;;;;
2023/01/22 12:21:56;;;;;;;16.1;10;;;;;;;1.7;89.5;99610;;;;
2023/01/22 12:32:57;;;;;;;15.8;9.2;;;;;;;1.8;89.5;99600;;;;
2023/01/22 12:43:57;;;;;;;15.8;9.2;;;;;;;1.7;89.9;99610;;;;
2023/01/22 12:53:56;;;;;;;17.6;10.6;;;;;;;1.7;90.3;99610;;;;
2023/01/22 13:04:56;;;;;;;17.6;10.6;;;;;;;1.8;90.2;99620;;;;
2023/01/22 13:15:57;;;;;;;17.6;10.6;;;;;;;1.6;90.6;99640;;;;
2023/01/22 13:25:56;;;;;;;19.9;10.4;;;;;;;1.7;90.6;99640;;;;
2023/01/22 13:36:56;;;;;;;19.9;10.4;;;;;;;1.9;90.2;99650;;;;
2023/01/22 13:47:56;;;;;;;19.9;10.4;;;;;;;2;89.8;99660;;;;
2023/01/22 13:57:56;;;;;;;21;13.7;;;;;;;2.5;89.8;99660;;;;
2023/01/22 14:08:56;;;;;;;21;13.7;;;;;;;2.7;88.8;99690;;;;
2023/01/22 14:18:56;;;;;;;21;13.7;;;;;;;2.4;87.9;99690;;;;
2023/01/22 14:29:57;;;;;;;36;21.5;;;;;;;2.3;88.2;99720;;;;
2023/01/22 14:40:56;;;;;;;36;21.5;;;;;;;2.2;88.4;99710;;;;
2023/01/22 14:50:56;;;;;;;36;21.5;;;;;;;2.2;88.8;99720;;;;
2023/01/22 15:00:57;;;;;;;23.7;15.9;;;;;;;2.1;89;99740;;;;
2023/01/22 15:11:56;;;;;;;23.7;15.9;;;;;;;2.2;89.3;99730;;;;
2023/01/22 15:22:57;;;;;;;23.7;15.9;;;;;;;2.1;89.6;99750;;;;
2023/01/22 15:32:57;;;;;;;26.6;14.8;;;;;;;2.1;89.6;99760;;;;
2023/01/22 15:43:59;;;;;;;26.6;14.8;;;;;;;2.2;89.7;99770;;;;
2023/01/22 15:53:57;;;;;;;32.5;18.7;;;;;;;2.2;89.5;99790;;;;
2023/01/22 16:03:57;;;;;;;32.5;18.7;;;;;;;2.2;89.5;99800;;;;
2023/01/22 16:14:57;;;;;;;32.5;18.7;;;;;;;2.1;89.6;99800;;;;
2023/01/22 16:24:57;;;;;;;28.7;16.5;;;;;;;2;89.8;99800;;;;
2023/01/22 16:35:57;;;;;;;28.7;16.5;;;;;;;2;90.1;99810;;;;
2023/01/22 16:45:59;;;;;;;28.7;16.5;;;;;;;2.1;90.1;99830;;;;
2023/01/22 16:56:57;;;;;;;25.3;15.9;;;;;;;2;90;99830;;;;
2023/01/22 17:06:57;;;;;;;25.3;15.9;;;;;;;2.1;90.2;99850;;;;
2023/01/22 17:17:57;;;;;;;25.3;15.9;;;;;;;2.1;90.1;99860;;;;
2023/01/22 17:27:57;;;;;;;47.6;25.6;;;;;;;2;90.2;99880;;;;
2023/01/22 17:38:57;;;;;;;47.6;25.6;;;;;;;2.1;90.2;99900;;;;
2023/01/22 17:48:57;;;;;;;47.6;25.6;;;;;;;2.3;90.3;99920;;;;
2023/01/22 17:59:57;;;;;;;32.2;21.3;;;;;;;2.2;89.6;99930;;;;
2023/01/22 18:09:57;;;;;;;32.2;21.3;;;;;;;2.2;89.9;99950;;;;
2023/01/22 18:20:57;;;;;;;32.2;21.3;;;;;;;2.2;89.6;99950;;;;
2023/01/22 18:30:57;;;;;;;32.3;19;;;;;;;2.3;89.4;99960;;;;
2023/01/22 18:41:57;;;;;;;32.3;19;;;;;;;2.3;89.4;99960;;;;
2023/01/22 18:51:59;;;;;;;32.3;19;;;;;;;2.2;89.3;99960;;;;
2023/01/22 19:01:57;;;;;;;29.8;15.5;;;;;;;2.2;89;99960;;;;
2023/01/22 19:12:57;;;;;;;29.8;15.5;;;;;;;2.3;89.1;99970;;;;
2023/01/22 19:22:58;;;;;;;38.7;23.6;;;;;;;2.2;88.9;99980;;;;
2023/01/22 19:33:57;;;;;;;38.7;23.6;;;;;;;2.3;88.9;99990;;;;
2023/01/22 19:43:57;;;;;;;38.7;23.6;;;;;;;2.2;88.8;100000;;;;
2023/01/22 19:53:57;;;;;;;20.1;11.7;;;;;;;2.2;88.5;100010;;;;
2023/01/22 20:04:57;;;;;;;20.1;11.7;;;;;;;2.2;88.7;100010;;;;
2023/01/22 20:15:58;;;;;;;20.1;11.7;;;;;;;2;88.6;100010;;;;
2023/01/22 20:26:57;;;;;;;17.7;9.3;;;;;;;2.1;88.9;100040;;;;
2023/01/22 20:36:57;;;;;;;17.7;9.3;;;;;;;2.2;88.7;100040;;;;
2023/01/22 20:46:57;;;;;;;17.7;9.3;;;;;;;2.3;88.5;100030;;;;
2023/01/22 20:57:57;;;;;;;18.1;10.2;;;;;;;2.2;88.5;100030;;;;
2023/01/22 21:07:57;;;;;;;18.1;10.2;;;;;;;2.1;88.6;100050;;;;
2023/01/22 21:17:58;;;;;;;18.1;10.2;;;;;;;2.2;88.8;100050;;;;
2023/01/22 21:27:57;;;;;;;14.3;8.7;;;;;;;2.2;88.8;100060;;;;
2023/01/22 21:38:57;;;;;;;14.3;8.7;;;;;;;2.2;88.5;100060;;;;
2023/01/22 21:49:57;;;;;;;14.3;8.7;;;;;;;2.2;88.6;100080;;;;
2023/01/22 22:00:57;;;;;;;15.3;8.7;;;;;;;2.3;88.6;100090;;;;
2023/01/22 22:10:57;;;;;;;15.3;8.7;;;;;;;2.2;88.5;100100;;;;
2023/01/22 22:20:57;;;;;;;15.3;8.7;;;;;;;2.2;88.5;100100;;;;
2023/01/22 22:30:57;;;;;;;;;;;;;;;;;;;;;
2023/01/22 22:40:57;;;;;;;18.6;9.6;;;;;;;2.2;88.3;100100;;;;
2023/01/22 22:51:57;;;;;;;18.6;9.6;;;;;;;2.2;88.3;100130;;;;
2023/01/22 23:02:57;;;;;;;16.5;9.4;;;;;;;2.2;88.5;100120;;;;
2023/01/22 23:12:57;;;;;;;16.5;9.4;;;;;;;2.2;88.5;100120;;;;
2023/01/22 23:22:57;;;;;;;17.9;10.1;;;;;;;2.3;88.6;100140;;;;
2023/01/22 23:33:57;;;;;;;17.9;10.1;;;;;;;2.3;88.5;100160;;;;
2023/01/22 23:43:57;;;;;;;17.9;10.1;;;;;;;2.1;88.5;100150;;;;
2023/01/22 23:53:57;;;;;;;15.8;8.9;;;;;;;2;88.8;100170;;;;
